Time;durP1;ratioP1;P1;durP2;ratioP2;P2;SDS_P1;SDS_P2;PMS_P1;PMS_P2;Temp;Humidity;BMP_temperature;BMP_pressure;BME280_temperature;BME280_humidity;BME280_pressure;Samples;Min_cycle;Max_cycle;Signal;HPM_P1;HPM_P2
2023/05/08 00:02:02;;;;;;;1.02;0.90;;;10.90;99.90;;;;;;5027686;28;20146;-83
2023/05/08 00:04:28;;;;;;;1.83;0.90;;;10.90;99.90;;;;;;5028295;28;20192;-83
2023/05/08 00:06:54;;;;;;;0.52;0.50;;;10.80;99.90;;;;;;5028433;28;20077;-83
2023/05/08 00:09:20;;;;;;;7.57;1.80;;;10.80;1.00;;;;;;5026976;28;20136;-82
2023/05/08 00:11:45;;;;;;;1.95;1.33;;;10.80;99.90;;;;;;5028626;28;20128;-83
2023/05/08 00:14:11;;;;;;;2.10;0.98;;;11.50;99.90;;;;;;5028429;28;20175;-82
2023/05/08 00:16:36;;;;;;;2.22;1.45;;;10.80;99.90;;;;;;5033963;28;20701;-83
2023/05/08 00:19:02;;;;;;;5.10;1.38;;;10.80;99.90;;;;;;5035120;28;20144;-83
2023/05/08 00:21:28;;;;;;;0.65;0.60;;;10.70;1.00;;;;;;5030662;28;20058;-83
2023/05/08 00:23:54;;;;;;;0.28;0.25;;;10.70;1.00;;;;;;5030781;28;20125;-82
2023/05/08 00:26:20;;;;;;;0.25;0.25;;;10.80;99.90;;;;;;5029531;28;20377;-82
2023/05/08 00:28:46;;;;;;;1.60;1.08;;;10.70;1.00;;;;;;5027216;28;20041;-83
2023/05/08 00:31:12;;;;;;;2.75;0.88;;;10.70;5.50;;;;;;5026392;28;20147;-83
2023/05/08 00:33:38;;;;;;;2.25;1.60;;;10.70;27.60;;;;;;5028350;28;20049;-82
2023/05/08 00:36:04;;;;;;;0.57;0.57;;;10.60;59.60;;;;;;5029269;28;20826;-82
2023/05/08 00:38:32;;;;;;;1.20;0.70;;;10.60;99.90;;;;;;5027973;28;20048;-83
2023/05/08 00:40:57;;;;;;;2.08;1.75;;;10.60;1.00;;;;;;5027751;28;20061;-82
2023/05/08 00:43:26;;;;;;;3.70;1.88;;;10.60;99.90;;;;;;5028666;28;20060;-82
2023/05/08 00:45:55;;;;;;;1.15;1.05;;;10.70;99.90;;;;;;5026944;28;20057;-82
2023/05/08 00:48:23;;;;;;;3.72;1.95;;;10.70;1.00;;;;;;5027691;28;20526;-83
2023/05/08 00:50:50;;;;;;;1.75;1.17;;;10.70;99.90;;;;;;5027441;28;20033;-82
2023/05/08 00:53:18;;;;;;;1.67;1.38;;;10.70;99.90;;;;;;5027890;28;20045;-82
2023/05/08 00:55:43;;;;;;;1.00;0.43;;;10.60;1.00;;;;;;5027063;28;20303;-82
2023/05/08 00:58:10;;;;;;;0.82;0.82;;;10.50;99.90;;;;;;5028317;28;20053;-83
2023/05/08 01:00:40;;;;;;;1.83;0.75;;;10.40;1.00;;;;;;5027256;28;20063;-82
2023/05/08 01:03:06;;;;;;;2.65;2.30;;;10.40;73.90;;;;;;5027466;28;20056;-82
2023/05/08 01:05:32;;;;;;;2.47;1.40;;;10.20;99.90;;;;;;5027929;28;20164;-82
2023/05/08 01:07:58;;;;;;;0.98;0.60;;;10.10;1.00;;;;;;5028623;28;20041;-82
2023/05/08 01:10:28;;;;;;;1.85;0.73;;;10.00;99.90;;;;;;5028438;28;20464;-83
2023/05/08 01:12:54;;;;;;;0.90;0.63;;;9.90;99.90;;;;;;5035877;28;20052;-82
2023/05/08 01:15:35;;;;;;;0.52;0.45;;;9.80;45.50;;;;;;5037842;28;20056;-82
2023/05/08 01:18:20;;;;;;;1.60;0.95;;;9.70;99.90;;;;;;5034268;28;20114;-82
2023/05/08 01:21:00;;;;;;;0.30;0.30;;;9.70;99.90;;;;;;5047142;28;20049;-82
2023/05/08 01:23:47;;;;;;;3.45;1.02;;;9.60;99.90;;;;;;5045613;28;20494;-83
2023/05/08 01:26:31;;;;;;;2.30;1.92;;;9.50;1.00;;;;;;5046952;28;20064;-83
2023/05/08 01:29:39;;;;;;;0.77;0.77;;;9.40;1.00;;;;;;5042119;28;20075;-82
2023/05/08 01:32:25;;;;;;;1.05;0.80;;;9.40;88.50;;;;;;5047315;28;20045;-82
2023/05/08 01:35:08;;;;;;;1.40;1.20;;;9.30;62.30;;;;;;5047336;28;20041;-83
2023/05/08 01:37:56;;;;;;;1.92;1.60;;;9.20;99.90;;;;;;5043649;28;20116;-83
2023/05/08 01:40:39;;;;;;;3.15;1.08;;;9.10;99.90;;;;;;5027446;28;20120;-83
2023/05/08 01:43:09;;;;;;;3.47;0.82;;;9.00;99.90;;;;;;5027362;28;20542;-83
2023/05/08 01:45:39;;;;;;;1.02;0.88;;;9.00;99.90;;;;;;5027313;28;20551;-82
2023/05/08 01:48:09;;;;;;;0.70;0.57;;;9.00;99.90;;;;;;5042067;28;20045;-82
2023/05/08 01:50:47;;;;;;;1.85;0.88;;;9.00;99.90;;;;;;5027642;28;20068;-82
2023/05/08 01:53:30;;;;;;;0.70;0.70;;;8.90;99.90;;;;;;5027668;28;20101;-83
2023/05/08 01:55:59;;;;;;;1.17;0.98;;;8.80;99.90;;;;;;5027152;28;20140;-82
2023/05/08 01:58:26;;;;;;;2.20;0.88;;;8.80;99.90;;;;;;5037216;28;20578;-82
2023/05/08 02:00:53;;;;;;;0.70;0.70;;;8.70;99.90;;;;;;5040492;28;20137;-83
2023/05/08 02:03:21;;;;;;;1.75;1.10;;;8.80;99.90;;;;;;5028260;28;20054;-82
2023/05/08 02:05:50;;;;;;;1.33;0.88;;;8.80;99.90;;;;;;5026782;28;20423;-82
2023/05/08 02:08:18;;;;;;;1.33;1.23;;;8.80;99.90;;;;;;5028068;28;20045;-82
2023/05/08 02:10:47;;;;;;;0.68;0.68;;;8.80;99.90;;;;;;5032811;28;20446;-82
2023/05/08 02:13:17;;;;;;;0.50;0.50;;;8.80;99.90;;;;;;5047058;28;20056;-82
2023/05/08 02:15:47;;;;;;;0.80;0.80;;;8.80;99.90;;;;;;5046581;28;20045;-82
2023/05/08 02:18:14;;;;;;;2.95;1.38;;;8.70;99.90;;;;;;5045567;28;20102;-82
2023/05/08 02:20:41;;;;;;;1.65;1.20;;;8.80;99.90;;;;;;5041738;28;20049;-82
2023/05/08 02:23:07;;;;;;;0.55;0.52;;;8.80;99.90;;;;;;5026953;28;20400;-82
2023/05/08 02:25:35;;;;;;;0.52;0.52;;;8.70;99.90;;;;;;5027460;28;20755;-82
2023/05/08 02:28:01;;;;;;;2.75;1.48;;;8.60;99.90;;;;;;5036213;28;20099;-83
2023/05/08 02:30:28;;;;;;;0.30;0.30;;;8.50;99.90;;;;;;5046882;28;20037;-83
2023/05/08 02:32:54;;;;;;;1.95;1.65;;;8.40;99.90;;;;;;5030614;28;20533;-83
2023/05/08 02:35:21;;;;;;;0.77;0.77;;;8.40;99.90;;;;;;5031057;28;20050;-83
2023/05/08 02:37:53;;;;;;;2.00;1.05;;;8.30;99.90;;;;;;5030328;28;20041;-82
2023/05/08 02:40:21;;;;;;;2.08;1.30;;;8.20;99.90;;;;;;5030845;28;20053;-82
2023/05/08 02:42:47;;;;;;;3.42;2.05;;;8.20;99.90;;;;;;5030222;28;20037;-82
2023/05/08 02:45:13;;;;;;;0.75;0.75;;;8.20;99.90;;;;;;5029466;28;20128;-82
2023/05/08 02:47:57;;;;;;;3.50;2.03;;;8.10;99.90;;;;;;5030779;28;20053;-83
2023/05/08 02:50:34;;;;;;;1.17;0.88;;;8.10;99.90;;;;;;5031701;28;20049;-82
2023/05/08 02:53:03;;;;;;;2.15;1.27;;;8.10;99.90;;;;;;5051180;28;20044;-83
2023/05/08 02:55:47;;;;;;;2.10;1.13;;;8.00;99.90;;;;;;5051112;28;20063;-82
2023/05/08 02:58:30;;;;;;;2.17;1.52;;;7.90;99.90;;;;;;5052885;28;20036;-82
2023/05/08 03:01:00;;;;;;;1.05;0.88;;;7.90;99.90;;;;;;5047642;28;20111;-83
2023/05/08 03:03:37;;;;;;;0.70;0.70;;;7.80;99.90;;;;;;5033908;28;20048;-82
2023/05/08 03:06:26;;;;;;;0.68;0.45;;;7.80;99.90;;;;;;5036032;28;20061;-82
2023/05/08 03:08:53;;;;;;;0.40;0.30;;;7.80;99.90;;;;;;5035129;28;20060;-82
2023/05/08 03:11:26;;;;;;;4.10;1.83;;;7.80;99.90;;;;;;5041390;28;20479;-82
2023/05/08 03:13:56;;;;;;;2.17;1.08;;;7.80;99.90;;;;;;5053034;28;20052;-83
2023/05/08 03:16:24;;;;;;;1.33;1.23;;;7.70;99.90;;;;;;5049908;28;20072;-82
2023/05/08 03:18:58;;;;;;;2.33;1.90;;;7.70;99.90;;;;;;5048877;28;20044;-82
2023/05/08 03:21:28;;;;;;;0.80;0.73;;;7.70;99.90;;;;;;5048763;28;20116;-82
2023/05/08 03:23:56;;;;;;;1.65;1.50;;;7.70;99.90;;;;;;5049718;28;20056;-82
2023/05/08 03:26:22;;;;;;;1.63;1.35;;;7.70;99.90;;;;;;5048726;28;20493;-82
2023/05/08 03:28:48;;;;;;;0.52;0.38;;;7.70;99.90;;;;;;5045498;28;20043;-82
2023/05/08 03:31:23;;;;;;;1.25;1.15;;;8.30;99.90;;;;;;5036666;28;20118;-84
2023/05/08 03:33:52;;;;;;;27.02;5.18;;;7.70;99.90;;;;;;5048548;28;20076;-82
2023/05/08 03:36:18;;;;;;;1.27;1.08;;;7.70;99.90;;;;;;5029322;28;20045;-82
2023/05/08 03:38:44;;;;;;;1.80;1.67;;;7.70;99.90;;;;;;5032853;28;20128;-82
2023/05/08 03:41:11;;;;;;;1.90;1.35;;;7.70;99.90;;;;;;5048865;28;20051;-82
2023/05/08 03:43:37;;;;;;;0.80;0.80;;;7.70;99.90;;;;;;5048759;28;20094;-82
2023/05/08 03:46:06;;;;;;;1.67;1.27;;;7.70;99.90;;;;;;5048255;28;20041;-82
2023/05/08 03:48:33;;;;;;;1.90;1.70;;;7.60;99.90;;;;;;5048420;28;20131;-82
2023/05/08 03:51:03;;;;;;;1.85;1.13;;;7.70;99.90;;;;;;5043391;28;20084;-82
2023/05/08 03:53:29;;;;;;;1.60;1.00;;;7.70;99.90;;;;;;5029004;28;20073;-82
2023/05/08 03:55:59;;;;;;;2.90;1.15;;;7.70;99.90;;;;;;5029148;28;20097;-82
2023/05/08 03:58:47;;;;;;;1.95;1.20;;;7.70;99.90;;;;;;5028506;28;20504;-82
2023/05/08 04:01:24;;;;;;;1.73;1.63;;;7.80;99.90;;;;;;5035442;28;20048;-82
2023/05/08 04:04:15;;;;;;;1.05;0.95;;;7.80;99.90;;;;;;5048610;28;20060;-83
2023/05/08 04:07:02;;;;;;;2.00;1.85;;;7.80;99.90;;;;;;5048927;28;20076;-82
2023/05/08 04:09:33;;;;;;;;;;;7.90;99.90;;;;;;5047989;28;20055;-82
2023/05/08 04:12:16;;;;;;;0.25;0.25;;;7.90;99.90;;;;;;5047906;28;19932;-82
2023/05/08 04:14:48;;;;;;;1.73;1.58;;;7.90;99.90;;;;;;5048436;28;20053;-83
2023/05/08 04:17:21;;;;;;;0.70;0.70;;;7.90;99.90;;;;;;5030873;28;20049;-82
2023/05/08 04:19:54;;;;;;;1.35;0.85;;;7.90;99.90;;;;;;5029710;28;20051;-82
2023/05/08 04:22:24;;;;;;;1.27;1.17;;;7.90;99.90;;;;;;5028735;28;20096;-83
2023/05/08 04:24:52;;;;;;;0.80;0.80;;;8.00;99.90;;;;;;5028063;28;20128;-82
2023/05/08 04:27:18;;;;;;;1.65;0.85;;;8.00;99.90;;;;;;5042877;28;20356;-82
2023/05/08 04:29:44;;;;;;;2.00;1.08;;;8.10;99.90;;;;;;5047501;28;20088;-83
2023/05/08 04:32:10;;;;;;;1.48;1.38;;;8.20;99.90;;;;;;5040453;28;20498;-82
2023/05/08 04:34:36;;;;;;;1.10;1.02;;;8.30;99.90;;;;;;5038690;28;20503;-83
2023/05/08 04:37:02;;;;;;;0.65;0.65;;;8.40;99.90;;;;;;5038739;28;20135;-83
2023/05/08 04:39:28;;;;;;;1.88;1.30;;;8.40;99.90;;;;;;5036726;28;20068;-83
2023/05/08 04:41:54;;;;;;;5.18;1.58;;;8.40;99.90;;;;;;5040844;28;20102;-83
2023/05/08 04:44:20;;;;;;;0.45;0.40;;;8.40;99.90;;;;;;5039801;28;20127;-82
2023/05/08 04:46:45;;;;;;;1.20;0.88;;;8.40;99.90;;;;;;5048015;28;20079;-83
2023/05/08 04:49:11;;;;;;;1.45;1.33;;;8.60;99.90;;;;;;5039925;28;20044;-84
2023/05/08 04:51:37;;;;;;;1.35;1.00;;;8.70;99.90;;;;;;5027704;28;20101;-83
2023/05/08 04:54:02;;;;;;;1.15;0.95;;;8.80;99.90;;;;;;5036852;28;20071;-83
2023/05/08 04:56:28;;;;;;;0.38;0.38;;;8.80;99.90;;;;;;5046525;28;20049;-83
2023/05/08 04:58:53;;;;;;;0.13;0.13;;;8.80;99.90;;;;;;5046381;28;20411;-83
2023/05/08 05:01:19;;;;;;;1.23;0.73;;;8.80;99.90;;;;;;5027471;28;20051;-83
2023/05/08 05:03:45;;;;;;;0.90;0.82;;;8.90;99.90;;;;;;5026745;28;20084;-83
2023/05/08 05:06:11;;;;;;;1.25;1.15;;;9.00;99.90;;;;;;5027171;28;20064;-83
2023/05/08 05:08:36;;;;;;;2.45;0.80;;;9.00;99.90;;;;;;5032853;28;20037;-83
2023/05/08 05:11:02;;;;;;;0.68;0.45;;;9.00;99.90;;;;;;5031726;28;20060;-83
2023/05/08 05:13:27;;;;;;;0.45;0.35;;;9.30;65.60;;;;;;5035017;28;20037;-83
2023/05/08 05:15:53;;;;;;;3.15;1.83;;;9.20;1.00;;;;;;5034399;28;20487;-83
2023/05/08 05:18:20;;;;;;;1.60;0.77;;;9.20;1.00;;;;;;5034556;28;20041;-83
2023/05/08 05:20:45;;;;;;;0.77;0.77;;;9.30;99.90;;;;;;5026488;28;20051;-83
2023/05/08 05:23:11;;;;;;;2.83;1.85;;;9.40;99.90;;;;;;5033855;28;20124;-83
2023/05/08 05:25:37;;;;;;;0.50;0.50;;;9.50;93.40;;;;;;5033742;28;20044;-82
2023/05/08 05:28:03;;;;;;;1.35;0.90;;;9.60;52.90;;;;;;5043932;28;20105;-83
2023/05/08 05:30:28;;;;;;;7.88;1.23;;;9.60;99.90;;;;;;5031204;28;20077;-83
2023/05/08 05:32:54;;;;;;;1.80;1.13;;;9.70;1.00;;;;;;5031063;28;20041;-83
2023/05/08 05:35:19;;;;;;;2.10;1.55;;;9.80;99.90;;;;;;5030764;28;20041;-83
2023/05/08 05:37:45;;;;;;;1.48;1.38;;;9.90;99.90;;;;;;5023310;28;20042;-83
2023/05/08 05:40:12;;;;;;;2.30;1.02;;;9.90;99.90;;;;;;5023593;28;20161;-82
2023/05/08 05:42:38;;;;;;;0.73;0.70;;;10.00;1.00;;;;;;5023814;28;20065;-83
2023/05/08 05:45:04;;;;;;;3.13;1.40;;;10.20;1.00;;;;;;5024634;28;20049;-83
2023/05/08 05:47:29;;;;;;;2.40;1.92;;;10.70;1.00;;;;;;5023400;28;20042;-82
2023/05/08 05:49:56;;;;;;;1.02;0.93;;;11.30;99.90;;;;;;5023675;28;20042;-83
2023/05/08 05:52:22;;;;;;;0.52;0.50;;;11.70;1.00;;;;;;5023707;28;20077;-83
2023/05/08 05:54:48;;;;;;;1.90;1.70;;;12.30;99.90;;;;;;5023193;28;20139;-83
2023/05/08 05:57:13;;;;;;;2.70;1.75;;;12.80;99.90;;;;;;5036041;28;20086;-83
2023/05/08 05:59:40;;;;;;;15.45;1.00;;;13.20;99.90;;;;;;5043731;28;20037;-83
2023/05/08 06:02:09;;;;;;;1.15;1.05;;;12.80;99.90;;;;;;5043836;28;20048;-83
2023/05/08 06:04:35;;;;;;;1.50;0.93;;;13.50;53.50;;;;;;5036355;28;20059;-83
2023/05/08 06:07:00;;;;;;;1.95;1.55;;;13.60;1.00;;;;;;5036928;28;20142;-83
2023/05/08 06:09:26;;;;;;;1.35;1.05;;;13.70;1.00;;;;;;5035734;28;20135;-83
2023/05/08 06:11:51;;;;;;;0.35;0.32;;;13.80;1.00;;;;;;5034976;28;20045;-83
2023/05/08 06:14:17;;;;;;;0.75;0.65;;;14.40;1.00;;;;;;5038356;28;20406;-83
2023/05/08 06:16:43;;;;;;;2.92;1.58;;;14.00;99.90;;;;;;5031025;28;20041;-83
2023/05/08 06:19:09;;;;;;;0.32;0.32;;;13.20;1.00;;;;;;5027775;28;20090;-83
2023/05/08 06:21:35;;;;;;;0.90;0.85;;;12.40;1.00;;;;;;5027609;28;20153;-83
2023/05/08 06:24:01;;;;;;;0.90;0.75;;;12.20;1.00;;;;;;5026301;28;20779;-83
2023/05/08 06:26:26;;;;;;;0.35;0.35;;;12.30;33.10;;;;;;5027936;28;20454;-83
2023/05/08 06:28:52;;;;;;;0.65;0.57;;;12.40;90.70;;;;;;5027604;28;20128;-83
2023/05/08 06:31:17;;;;;;;1.52;1.05;;;13.40;24.70;;;;;;5027594;28;20420;-83
2023/05/08 06:33:43;;;;;;;2.58;1.63;;;14.30;1.00;;;;;;5026613;28;20211;-83
2023/05/08 06:36:09;;;;;;;0.70;0.45;;;14.60;99.90;;;;;;5029035;28;20051;-83
2023/05/08 06:38:35;;;;;;;1.02;0.75;;;15.00;99.90;;;;;;5027959;28;20549;-83
2023/05/08 06:41:00;;;;;;;0.20;0.20;;;15.00;99.90;;;;;;5026302;28;20045;-83
2023/05/08 06:43:26;;;;;;;6.63;1.60;;;14.90;99.90;;;;;;5026722;28;20088;-83
2023/05/08 06:45:52;;;;;;;0.75;0.55;;;15.60;99.90;;;;;;5026386;28;20100;-83
2023/05/08 06:48:17;;;;;;;0.60;0.57;;;15.40;99.90;;;;;;5023472;28;20041;-84
2023/05/08 06:50:44;;;;;;;0.40;0.40;;;15.20;99.90;;;;;;5023080;28;20087;-84
2023/05/08 06:53:09;;;;;;;4.40;1.48;;;15.90;99.90;;;;;;5024569;28;20881;-84
2023/05/08 06:55:35;;;;;;;1.30;0.90;;;15.40;99.90;;;;;;5023048;28;20053;-84
2023/05/08 06:58:01;;;;;;;0.50;0.40;;;15.60;99.90;;;;;;5023327;28;20052;-83
2023/05/08 07:00:27;;;;;;;1.00;0.52;;;15.20;99.90;;;;;;5023494;28;20049;-84
2023/05/08 07:02:52;;;;;;;0.70;0.70;;;15.40;99.90;;;;;;5022479;28;20060;-83
2023/05/08 07:05:18;;;;;;;0.63;0.63;;;14.30;99.90;;;;;;5023893;28;20042;-83
2023/05/08 07:07:45;;;;;;;0.70;0.50;;;14.20;99.90;;;;;;5024606;28;20060;-83
2023/05/08 07:10:10;;;;;;;0.75;0.65;;;14.10;99.90;;;;;;5024699;28;20502;-83
2023/05/08 07:12:36;;;;;;;1.20;0.65;;;13.90;99.90;;;;;;5022585;28;20519;-83
2023/05/08 07:15:02;;;;;;;0.55;0.55;;;14.00;99.90;;;;;;5025823;28;20119;-83
2023/05/08 07:17:29;;;;;;;2.53;1.50;;;14.40;99.90;;;;;;5024081;28;20080;-83
2023/05/08 07:19:55;;;;;;;1.05;0.73;;;14.70;99.90;;;;;;5024342;28;20052;-83
2023/05/08 07:22:20;;;;;;;2.65;1.08;;;14.70;99.90;;;;;;5023760;28;20045;-84
2023/05/08 07:24:46;;;;;;;0.80;0.70;;;14.80;99.90;;;;;;5023550;28;20045;-83
2023/05/08 07:27:13;;;;;;;0.77;0.50;;;14.70;99.90;;;;;;5023164;28;20095;-83
2023/05/08 07:29:40;;;;;;;0.47;0.47;;;15.10;99.90;;;;;;5023636;28;20052;-83
2023/05/08 07:32:08;;;;;;;1.25;0.98;;;16.10;99.90;;;;;;5024280;28;20041;-83
2023/05/08 07:34:34;;;;;;;0.65;0.65;;;15.80;99.90;;;;;;5023682;28;20445;-83
2023/05/08 07:37:00;;;;;;;2.38;0.95;;;16.20;99.90;;;;;;5024219;28;20508;-83
2023/05/08 07:39:26;;;;;;;1.00;0.77;;;16.40;99.90;;;;;;5024962;28;20060;-83
2023/05/08 07:41:51;;;;;;;1.17;1.08;;;16.80;99.90;;;;;;5025864;28;20052;-83
2023/05/08 07:44:17;;;;;;;1.00;0.77;;;17.00;99.90;;;;;;5031420;28;20142;-83
2023/05/08 07:46:42;;;;;;;6.95;1.05;;;17.50;99.90;;;;;;5028745;28;20045;-83
2023/05/08 07:49:08;;;;;;;1.65;1.10;;;17.80;99.90;;;;;;5026900;28;20558;-84
2023/05/08 07:51:34;;;;;;;0.93;0.43;;;17.70;99.90;;;;;;5026658;28;20188;-84
2023/05/08 07:53:59;;;;;;;1.92;1.17;;;17.30;99.90;;;;;;5026173;28;20064;-83
2023/05/08 07:56:26;;;;;;;1.50;1.05;;;16.80;99.90;;;;;;5026566;28;20065;-83
2023/05/08 07:58:52;;;;;;;0.80;0.63;;;17.30;99.90;;;;;;5026412;28;20049;-83
2023/05/08 08:01:17;;;;;;;0.73;0.70;;;17.80;99.90;;;;;;5026434;28;20049;-83
2023/05/08 08:03:46;;;;;;;0.73;0.63;;;18.00;99.90;;;;;;5026620;28;20060;-83
2023/05/08 08:06:12;;;;;;;2.00;1.33;;;18.30;99.90;;;;;;5026825;28;20046;-83
2023/05/08 08:08:38;;;;;;;1.35;1.10;;;18.30;99.90;;;;;;5025805;28;20124;-84
2023/05/08 08:11:04;;;;;;;1.27;0.75;;;18.00;99.90;;;;;;5024294;28;20511;-83
2023/05/08 08:13:31;;;;;;;0.82;0.75;;;17.50;99.90;;;;;;5025922;28;20454;-83
2023/05/08 08:15:57;;;;;;;0.80;0.70;;;17.40;99.90;;;;;;5025495;28;20454;-83
2023/05/08 08:18:23;;;;;;;0.50;0.50;;;17.20;99.90;;;;;;5025528;28;20053;-84
2023/05/08 08:20:48;;;;;;;0.35;0.32;;;17.90;99.90;;;;;;5024256;28;20053;-83
2023/05/08 08:23:14;;;;;;;0.70;0.70;;;17.70;99.90;;;;;;5024675;28;20037;-83
2023/05/08 08:25:39;;;;;;;1.83;1.17;;;18.70;99.90;;;;;;5024889;28;20053;-83
2023/05/08 08:28:05;;;;;;;1.45;1.08;;;18.50;99.90;;;;;;5024296;28;20046;-83
2023/05/08 08:30:31;;;;;;;6.70;1.63;;;19.60;99.90;;;;;;5026559;28;20486;-83
2023/05/08 08:33:00;;;;;;;0.75;0.68;;;20.30;99.90;;;;;;5025284;28;20052;-83
2023/05/08 08:35:28;;;;;;;1.27;0.85;;;20.20;99.90;;;;;;5026763;28;20045;-83
2023/05/08 08:37:55;;;;;;;5.50;1.35;;;20.90;99.90;;;;;;5022661;28;20136;-83
2023/05/08 08:40:21;;;;;;;1.60;0.95;;;19.50;99.90;;;;;;5024210;28;20073;-83
2023/05/08 08:42:46;;;;;;;2.42;1.33;;;19.60;99.90;;;;;;5025528;28;20053;-83
2023/05/08 08:45:12;;;;;;;1.08;0.38;;;19.30;99.90;;;;;;5025563;28;20578;-83
2023/05/08 08:47:42;;;;;;;0.50;0.50;;;19.60;99.90;;;;;;5025167;28;20053;-83
2023/05/08 08:50:08;;;;;;;1.58;0.70;;;20.10;99.90;;;;;;5025108;28;20050;-83
2023/05/08 08:52:53;;;;;;;2.63;1.20;;;20.30;99.90;;;;;;5025078;28;20049;-83
2023/05/08 08:55:22;;;;;;;0.80;0.60;;;21.10;99.90;;;;;;5025307;28;20069;-83
2023/05/08 08:57:59;;;;;;;2.50;1.10;;;21.40;99.90;;;;;;5024333;28;20038;-83
2023/05/08 09:00:28;;;;;;;0.63;0.63;;;22.00;99.90;;;;;;5024790;28;20076;-83
2023/05/08 09:02:54;;;;;;;0.73;0.70;;;21.30;99.90;;;;;;5023492;28;20049;-83
2023/05/08 09:05:22;;;;;;;0.88;0.82;;;21.00;99.90;;;;;;5024685;28;20523;-83
2023/05/08 09:07:48;;;;;;;3.63;1.40;;;20.70;99.90;;;;;;5024469;28;20056;-84
2023/05/08 09:10:14;;;;;;;0.65;0.60;;;20.70;99.90;;;;;;5024189;28;20504;-83
2023/05/08 09:12:40;;;;;;;0.98;0.95;;;20.40;99.90;;;;;;5024728;28;20066;-83
2023/05/08 09:15:06;;;;;;;1.52;1.02;;;20.20;99.90;;;;;;5024503;28;20048;-83
2023/05/08 09:17:32;;;;;;;1.85;1.23;;;20.20;99.90;;;;;;5024567;28;20405;-83
2023/05/08 09:19:58;;;;;;;1.85;0.75;;;20.40;99.90;;;;;;5024255;28;20087;-83
2023/05/08 09:22:25;;;;;;;3.28;1.83;;;20.40;99.90;;;;;;5024404;28;20041;-83
2023/05/08 09:24:56;;;;;;;1.58;0.93;;;20.60;99.90;;;;;;5024808;28;20045;-83
2023/05/08 09:27:23;;;;;;;0.90;0.80;;;21.10;99.90;;;;;;5022731;28;20046;-84
2023/05/08 09:30:01;;;;;;;6.97;3.13;;;21.10;99.90;;;;;;5024128;28;20099;-83
2023/05/08 09:32:28;;;;;;;1.45;1.05;;;21.10;99.90;;;;;;5023862;28;20048;-83
2023/05/08 09:34:54;;;;;;;1.33;0.98;;;21.60;99.90;;;;;;5026254;28;20067;-83
2023/05/08 09:37:20;;;;;;;0.98;0.88;;;22.50;99.90;;;;;;5030789;28;20057;-83
2023/05/08 09:39:46;;;;;;;1.83;1.58;;;23.50;99.90;;;;;;5030922;28;20380;-84
2023/05/08 09:42:13;;;;;;;0.50;0.50;;;23.40;99.90;;;;;;5030920;28;20254;-83
2023/05/08 09:44:46;;;;;;;2.15;1.30;;;23.40;99.90;;;;;;5030559;28;20104;-83
2023/05/08 09:47:20;;;;;;;1.02;0.75;;;22.80;99.90;;;;;;5030324;28;20091;-83
2023/05/08 09:50:00;;;;;;;1.23;0.80;;;22.50;99.90;;;;;;5030942;28;20629;-83
2023/05/08 09:52:29;;;;;;;1.67;0.85;;;22.10;99.90;;;;;;5030576;28;20069;-83
2023/05/08 09:55:09;;;;;;;1.48;1.27;;;21.90;99.90;;;;;;5030363;28;20053;-83
2023/05/08 09:57:38;;;;;;;1.50;1.38;;;21.50;99.90;;;;;;5030791;28;20048;-83
2023/05/08 10:00:14;;;;;;;0.80;0.80;;;21.50;99.90;;;;;;5030416;28;20100;-83
2023/05/08 10:02:41;;;;;;;1.50;0.70;;;21.90;99.90;;;;;;5030226;28;20051;-83
2023/05/08 10:05:22;;;;;;;1.27;1.05;;;22.60;99.90;;;;;;5030209;28;20037;-83
2023/05/08 10:07:47;;;;;;;1.00;0.90;;;22.10;99.90;;;;;;5030380;28;20263;-83
2023/05/08 10:10:13;;;;;;;1.05;0.95;;;21.90;99.90;;;;;;5030314;28;20047;-83
2023/05/08 10:12:40;;;;;;;1.08;0.95;;;21.50;99.90;;;;;;5030312;28;20057;-83
2023/05/08 10:15:06;;;;;;;1.77;1.33;;;21.40;99.90;;;;;;5030244;28;20045;-83
2023/05/08 10:17:45;;;;;;;0.95;0.77;;;21.80;99.90;;;;;;5029520;28;20132;-83
2023/05/08 10:20:13;;;;;;;2.70;1.60;;;21.50;99.90;;;;;;5030103;28;20080;-83
2023/05/08 10:22:42;;;;;;;1.95;1.25;;;21.60;99.90;;;;;;5029820;28;20055;-83
2023/05/08 10:25:15;;;;;;;2.72;1.35;;;22.10;99.90;;;;;;5030158;28;20396;-83
2023/05/08 10:27:57;;;;;;;2.78;1.80;;;21.70;99.90;;;;;;5030031;28;20045;-83
2023/05/08 10:30:24;;;;;;;0.73;0.73;;;21.80;99.90;;;;;;5029992;28;20077;-83
2023/05/08 10:32:54;;;;;;;2.70;1.98;;;21.40;99.90;;;;;;5029289;28;20383;-83
2023/05/08 10:35:20;;;;;;;1.20;0.88;;;21.70;99.90;;;;;;5029468;28;20083;-83
2023/05/08 10:37:47;;;;;;;1.27;1.05;;;21.80;99.90;;;;;;5029600;28;20370;-83
2023/05/08 10:40:14;;;;;;;3.30;1.75;;;22.20;99.90;;;;;;5029105;28;20110;-83
2023/05/08 10:42:41;;;;;;;1.10;0.93;;;22.30;99.90;;;;;;5029694;28;20052;-84
2023/05/08 10:45:08;;;;;;;2.85;1.50;;;22.10;99.90;;;;;;5029384;28;20045;-83
2023/05/08 10:47:58;;;;;;;1.20;1.02;;;22.10;99.90;;;;;;5025540;28;20092;-83
2023/05/08 10:50:35;;;;;;;1.90;1.30;;;22.80;99.90;;;;;;5028664;28;20054;-83
2023/05/08 10:53:09;;;;;;;2.05;1.63;;;22.50;99.90;;;;;;5026738;28;20053;-83
2023/05/08 10:55:37;;;;;;;0.55;0.55;;;22.70;99.90;;;;;;5026181;28;20526;-83
2023/05/08 10:58:14;;;;;;;3.47;2.05;;;23.10;99.90;;;;;;5025815;28;20432;-83
2023/05/08 11:00:52;;;;;;;3.08;1.42;;;22.80;99.90;;;;;;5025543;28;20056;-83
2023/05/08 11:03:24;;;;;;;1.58;1.00;;;22.60;99.90;;;;;;5025267;28;20049;-83
2023/05/08 11:05:51;;;;;;;2.35;0.82;;;22.80;99.90;;;;;;5025634;28;20504;-83
2023/05/08 11:08:18;;;;;;;1.42;1.13;;;23.40;99.90;;;;;;5025610;28;20041;-83
2023/05/08 11:10:50;;;;;;;2.42;1.67;;;23.20;99.90;;;;;;5025402;28;20576;-83
2023/05/08 11:13:18;;;;;;;1.20;1.10;;;23.20;99.90;;;;;;5025678;28;20116;-83
2023/05/08 11:15:49;;;;;;;0.50;0.47;;;23.20;99.90;;;;;;5025454;28;20432;-83
2023/05/08 11:18:16;;;;;;;2.03;1.33;;;23.70;99.90;;;;;;5025001;28;20128;-83
2023/05/08 11:20:54;;;;;;;1.35;1.05;;;24.50;99.90;;;;;;5025870;28;20381;-83
2023/05/08 11:23:27;;;;;;;1.92;1.67;;;24.30;99.90;;;;;;5024971;28;20530;-83
2023/05/08 11:25:58;;;;;;;1.13;1.02;;;24.10;99.90;;;;;;5025347;28;20057;-83
2023/05/08 11:28:24;;;;;;;0.80;0.68;;;24.10;99.90;;;;;;5025318;28;20049;-83
2023/05/08 11:30:54;;;;;;;0.93;0.70;;;24.20;99.90;;;;;;5024834;28;20053;-83
2023/05/08 11:33:19;;;;;;;1.27;1.05;;;24.30;99.90;;;;;;5025039;28;20053;-83
2023/05/08 11:35:51;;;;;;;1.65;1.38;;;24.80;99.90;;;;;;5024931;28;20051;-83
2023/05/08 11:38:28;;;;;;;2.53;1.42;;;25.20;99.90;;;;;;5024692;28;20049;-83
2023/05/08 11:40:58;;;;;;;0.93;0.80;;;24.80;99.90;;;;;;5024880;28;20179;-83
2023/05/08 11:43:33;;;;;;;2.90;1.52;;;25.10;99.90;;;;;;5024247;28;20546;-83
2023/05/08 11:46:20;;;;;;;0.60;0.57;;;25.90;99.90;;;;;;5024196;28;20050;-83
2023/05/08 11:48:46;;;;;;;7.68;1.83;;;26.80;99.90;;;;;;5022773;28;20057;-83
2023/05/08 11:51:15;;;;;;;8.23;2.42;;;26.20;99.90;;;;;;5024524;28;20091;-83
2023/05/08 11:53:43;;;;;;;1.45;1.25;;;26.60;99.90;;;;;;5023584;28;20046;-83
2023/05/08 11:56:08;;;;;;;2.80;1.75;;;26.70;99.90;;;;;;5024251;28;20111;-83
2023/05/08 11:58:35;;;;;;;1.55;1.08;;;27.10;99.90;;;;;;5023734;28;20045;-83
2023/05/08 12:01:01;;;;;;;2.60;1.77;;;27.80;99.90;;;;;;5024293;28;20411;-83
2023/05/08 12:03:27;;;;;;;0.60;0.57;;;27.40;99.90;;;;;;5024465;28;20041;-83
2023/05/08 12:05:57;;;;;;;2.95;1.85;;;27.60;99.90;;;;;;5024307;28;20504;-83
2023/05/08 12:08:23;;;;;;;1.30;1.10;;;27.30;99.90;;;;;;5023267;28;20060;-83
2023/05/08 12:10:50;;;;;;;0.65;0.63;;;27.70;99.90;;;;;;5023616;28;20911;-83
2023/05/08 12:13:17;;;;;;;0.63;0.55;;;27.70;99.90;;;;;;5023547;28;20051;-83
2023/05/08 12:15:43;;;;;;;2.22;1.30;;;26.80;99.90;;;;;;5024266;28;20057;-83
2023/05/08 12:18:09;;;;;;;2.97;2.38;;;26.80;99.90;;;;;;5026127;28;20052;-83
2023/05/08 12:20:35;;;;;;;4.72;1.88;;;25.60;99.90;;;;;;5024427;28;20041;-83
2023/05/08 12:23:02;;;;;;;1.13;1.02;;;25.50;99.90;;;;;;5022972;28;20135;-83
2023/05/08 12:25:28;;;;;;;2.10;0.93;;;24.60;99.90;;;;;;5023357;28;20466;-83
2023/05/08 12:27:54;;;;;;;2.75;1.67;;;24.70;99.90;;;;;;5022752;28;20183;-83
2023/05/08 12:30:19;;;;;;;1.42;0.90;;;25.20;99.90;;;;;;5022691;28;20064;-83
2023/05/08 12:32:46;;;;;;;0.28;0.28;;;26.20;99.90;;;;;;5022675;28;20049;-83
2023/05/08 12:35:13;;;;;;;4.28;1.05;;;28.10;99.90;;;;;;5022787;28;20077;-83
2023/05/08 12:37:39;;;;;;;1.15;0.93;;;28.70;99.90;;;;;;5022949;28;20060;-83
2023/05/08 12:40:06;;;;;;;1.30;0.65;;;30.30;99.90;;;;;;5022949;28;20046;-83
2023/05/08 12:42:47;;;;;;;1.33;1.08;;;31.30;99.90;;;;;;5023026;28;20052;-83
2023/05/08 12:45:19;;;;;;;1.35;1.13;;;31.60;99.90;;;;;;5023202;28;20049;-83
2023/05/08 12:47:50;;;;;;;1.45;1.00;;;31.20;99.90;;;;;;5023031;28;20120;-83
2023/05/08 12:50:16;;;;;;;1.02;0.52;;;32.00;99.90;;;;;;5022613;28;20053;-83
2023/05/08 12:52:42;;;;;;;0.73;0.45;;;32.60;99.90;;;;;;5022730;28;20056;-83
2023/05/08 12:55:29;;;;;;;0.95;0.57;;;32.60;99.90;;;;;;5023274;28;20136;-83
2023/05/08 12:57:59;;;;;;;0.85;0.50;;;32.10;99.90;;;;;;5023082;28;20099;-83
2023/05/08 13:00:24;;;;;;;1.05;0.73;;;31.70;99.90;;;;;;5024079;28;20080;-83